Time;durP1;ratioP1;P1;durP2;ratioP2;P2;SDS_P1;SDS_P2;PMS_P1;PMS_P2;Temp;Humidity;BMP_temperature;BMP_pressure;BME280_temperature;BME280_humidity;BME280_pressure;Samples;Min_cycle;Max_cycle;Signal;HPM_P1;HPM_P2
2023/10/20 00:00:06;;;;;;;13.18;10.63;;;;;;;14.90;100.00;98466.00;5035269;28;20163;-62
2023/10/20 00:02:32;;;;;;;13.50;11.07;;;;;;;14.89;100.00;98472.22;5035589;28;20044;-62
2023/10/20 00:04:58;;;;;;;15.73;10.50;;;;;;;14.88;100.00;98473.16;5035046;28;20112;-63
2023/10/20 00:07:23;;;;;;;16.17;10.15;;;;;;;14.88;100.00;98481.16;5034895;28;20104;-62
2023/10/20 00:09:49;;;;;;;13.70;10.52;;;;;;;14.88;100.00;98483.81;5035264;28;20037;-62
2023/10/20 00:12:15;;;;;;;16.23;10.43;;;;;;;14.86;100.00;98482.13;5034964;28;20377;-62
2023/10/20 00:14:41;;;;;;;13.90;10.82;;;;;;;14.83;100.00;98469.00;5035118;28;20480;-63
2023/10/20 00:17:06;;;;;;;14.13;10.35;;;;;;;14.84;100.00;98466.25;5034595;28;20511;-63
2023/10/20 00:19:32;;;;;;;14.13;11.10;;;;;;;14.84;100.00;98460.09;5066840;28;20056;-63
2023/10/20 00:21:57;;;;;;;14.82;10.98;;;;;;;14.84;100.00;98460.94;5034703;28;20072;-62
2023/10/20 00:24:22;;;;;;;14.25;11.20;;;;;;;14.83;100.00;98451.25;5034808;28;20536;-63
2023/10/20 00:26:49;;;;;;;14.02;10.90;;;;;;;14.83;100.00;98447.72;5034727;28;20029;-63
2023/10/20 00:29:15;;;;;;;15.52;11.00;;;;;;;14.82;100.00;98438.00;5034765;28;20045;-62
2023/10/20 00:31:41;;;;;;;15.25;11.05;;;;;;;14.82;100.00;98443.31;5034168;28;20104;-62
2023/10/20 00:34:06;;;;;;;18.38;11.30;;;;;;;14.82;100.00;98432.69;5034815;28;20160;-62
2023/10/20 00:36:31;;;;;;;15.60;11.48;;;;;;;14.81;100.00;98426.50;5034139;28;20033;-63
2023/10/20 00:38:57;;;;;;;13.35;10.63;;;;;;;14.81;100.00;98420.34;5034598;28;20060;-62
2023/10/20 00:41:22;;;;;;;15.48;11.32;;;;;;;14.79;100.00;98409.78;5034438;28;20108;-62
2023/10/20 00:43:48;;;;;;;14.40;11.18;;;;;;;14.78;100.00;98400.94;5032922;28;20040;-62
2023/10/20 00:46:13;;;;;;;14.40;11.30;;;;;;;14.76;100.00;98392.16;5034535;28;20168;-62
2023/10/20 00:48:40;;;;;;;14.20;10.70;;;;;;;14.74;100.00;98385.22;5034219;28;20076;-62
2023/10/20 00:51:06;;;;;;;14.85;11.30;;;;;;;14.73;100.00;98389.66;5034262;28;20360;-62
2023/10/20 00:53:33;;;;;;;15.43;12.07;;;;;;;14.72;100.00;98374.63;5034442;28;20025;-62
2023/10/20 00:56:01;;;;;;;17.23;12.25;;;;;;;14.71;100.00;98374.69;5034294;28;20025;-62
2023/10/20 00:58:27;;;;;;;14.90;11.50;;;;;;;14.70;100.00;98368.53;5033852;28;20025;-62
2023/10/20 01:00:53;;;;;;;16.05;11.57;;;;;;;14.70;100.00;98365.88;5032126;28;20025;-62
2023/10/20 01:03:19;;;;;;;15.55;12.18;;;;;;;14.67;100.00;98355.38;5033956;28;20028;-62
2023/10/20 01:05:45;;;;;;;13.93;12.10;;;;;;;14.68;100.00;98349.13;5033724;28;20021;-62
2023/10/20 01:08:10;;;;;;;18.58;12.38;;;;;;;14.67;100.00;98355.38;5034210;28;20112;-62
2023/10/20 01:10:37;;;;;;;17.35;12.90;;;;;;;14.66;100.00;98348.34;5033784;28;20423;-62
2023/10/20 01:13:02;;;;;;;18.40;12.95;;;;;;;14.64;100.00;98346.66;5033599;28;20038;-62
2023/10/20 01:15:28;;;;;;;16.42;12.48;;;;;;;14.63;100.00;98331.66;5033802;28;20395;-62
2023/10/20 01:17:53;;;;;;;18.13;12.98;;;;;;;14.63;100.00;98323.69;5032331;28;20053;-62
2023/10/20 01:20:19;;;;;;;16.42;13.02;;;;;;;14.61;100.00;98323.78;5033655;28;20029;-62
2023/10/20 01:22:45;;;;;;;16.73;12.68;;;;;;;14.60;100.00;98316.72;5033677;28;20037;-62
2023/10/20 01:25:11;;;;;;;18.80;12.82;;;;;;;14.57;100.00;98306.25;5033642;28;20096;-62
2023/10/20 01:27:37;;;;;;;20.00;13.02;;;;;;;14.58;100.00;98309.75;5032159;28;20033;-62
2023/10/20 01:30:03;;;;;;;19.00;13.85;;;;;;;14.55;100.00;98299.25;5033636;28;20112;-62
2023/10/20 01:32:29;;;;;;;21.27;13.80;;;;;;;14.56;100.00;98298.31;5033404;28;20022;-62
2023/10/20 01:34:54;;;;;;;18.00;13.85;;;;;;;14.54;100.00;98290.44;5032238;28;20033;-62
2023/10/20 01:37:19;;;;;;;19.42;13.57;;;;;;;14.55;100.00;98299.25;5033104;28;20024;-62
2023/10/20 01:39:45;;;;;;;24.50;13.65;;;;;;;14.54;100.00;98295.75;5033450;28;20365;-62
2023/10/20 01:42:10;;;;;;;19.45;13.85;;;;;;;14.53;100.00;98294.88;5033353;28;20116;-62
2023/10/20 01:44:36;;;;;;;14.95;12.20;;;;;;;14.54;100.00;98293.09;5033168;28;20026;-62
2023/10/20 01:47:02;;;;;;;20.13;14.00;;;;;;;14.55;100.00;98299.25;5033161;28;20037;-62
2023/10/20 01:49:28;;;;;;;20.73;14.57;;;;;;;14.53;100.00;98286.91;5033130;28;20032;-62
2023/10/20 01:51:53;;;;;;;18.52;13.43;;;;;;;14.55;100.00;98284.16;5033020;28;20029;-61
2023/10/20 01:54:19;;;;;;;21.00;14.07;;;;;;;14.54;100.00;98269.16;5033318;28;20068;-62
2023/10/20 01:56:44;;;;;;;18.17;13.50;;;;;;;14.52;100.00;98277.22;5033053;28;20087;-62
2023/10/20 01:59:11;;;;;;;18.75;13.30;;;;;;;14.52;100.00;98276.38;5031579;28;20112;-62
2023/10/20 02:01:36;;;;;;;19.58;13.52;;;;;;;14.52;100.00;98265.75;5032999;28;20115;-62
2023/10/20 02:04:02;;;;;;;17.73;13.88;;;;;;;14.48;100.00;98257.03;5032919;28;20100;-62
2023/10/20 02:06:27;;;;;;;17.67;14.13;;;;;;;14.49;100.00;98253.44;5033099;28;20476;-61
2023/10/20 02:08:53;;;;;;;18.58;12.95;;;;;;;14.49;100.00;98248.13;5032976;28;20514;-62
2023/10/20 02:11:18;;;;;;;19.23;13.23;;;;;;;14.50;100.00;98235.69;5032771;28;20025;-62
2023/10/20 02:13:44;;;;;;;19.38;12.30;;;;;;;14.49;100.00;98231.31;5032634;28;20104;-61
2023/10/20 02:16:10;;;;;;;18.20;13.52;;;;;;;14.49;100.00;98239.31;5031194;28;20053;-62
2023/10/20 02:18:36;;;;;;;14.88;12.40;;;;;;;14.47;100.00;98238.47;5033044;28;20056;-61
2023/10/20 02:21:03;;;;;;;20.48;13.05;;;;;;;14.49;100.00;98236.63;5032826;28;20045;-61
2023/10/20 02:23:36;;;;;;;17.15;13.30;;;;;;;14.51;100.00;98237.41;5032752;28;20025;-61
2023/10/20 02:26:05;;;;;;;17.13;12.93;;;;;;;14.50;100.00;98222.41;5032847;28;20039;-62
2023/10/20 02:28:31;;;;;;;18.15;12.90;;;;;;;14.49;100.00;98204.75;5032909;28;20033;-62
2023/10/20 02:30:58;;;;;;;18.42;12.45;;;;;;;14.50;100.00;98215.31;5032696;28;20055;-62
2023/10/20 02:33:25;;;;;;;16.65;12.32;;;;;;;14.47;100.00;98198.59;5032706;28;20036;-62
2023/10/20 02:35:50;;;;;;;17.10;13.00;;;;;;;14.45;100.00;98196.03;5032458;28;20499;-62
2023/10/20 02:38:16;;;;;;;19.40;13.05;;;;;;;14.44;100.00;98202.28;5032629;28;20045;-61
2023/10/20 02:40:51;;;;;;;16.83;12.30;;;;;;;14.44;100.00;98190.81;5032596;28;20037;-61
2023/10/20 02:43:17;;;;;;;17.42;12.13;;;;;;;14.41;100.00;98177.66;5032575;28;20018;-61
2023/10/20 02:45:51;;;;;;;17.25;12.88;;;;;;;14.41;100.00;98175.00;5032509;28;20048;-61
2023/10/20 02:48:16;;;;;;;17.95;12.75;;;;;;;14.39;100.00;98167.09;5032683;28;20045;-61
2023/10/20 02:50:42;;;;;;;18.20;13.07;;;;;;;14.39;100.00;98169.75;5032521;28;20026;-61
2023/10/20 02:53:08;;;;;;;16.27;13.02;;;;;;;14.39;100.00;98163.56;5032658;28;20072;-62
2023/10/20 02:55:33;;;;;;;18.90;13.30;;;;;;;14.33;100.00;98151.44;5032730;28;20049;-61
2023/10/20 02:58:02;;;;;;;17.45;13.20;;;;;;;14.34;100.00;98149.66;5032361;28;20068;-61
2023/10/20 03:00:27;;;;;;;18.77;13.15;;;;;;;14.33;100.00;98146.13;5032385;28;20030;-61
2023/10/20 03:02:53;;;;;;;20.10;12.85;;;;;;;14.32;100.00;98141.75;5032452;28;20574;-61
2023/10/20 03:05:21;;;;;;;18.63;13.60;;;;;;;14.30;100.00;98140.97;5032336;28;20057;-61
2023/10/20 03:07:47;;;;;;;18.80;13.27;;;;;;;14.31;100.00;98125.91;5032151;28;20483;-61
2023/10/20 03:10:13;;;;;;;21.30;13.98;;;;;;;14.27;100.00;98118.06;5032290;28;20068;-61
2023/10/20 03:12:38;;;;;;;17.42;13.27;;;;;;;14.28;100.00;98103.00;5032570;28;20057;-61
2023/10/20 03:15:06;;;;;;;18.67;12.93;;;;;;;14.25;100.00;98103.13;5032298;28;20487;-61
2023/10/20 03:17:32;;;;;;;18.83;13.60;;;;;;;14.27;100.00;98110.09;5031911;28;20075;-61
2023/10/20 03:19:57;;;;;;;21.05;13.05;;;;;;;14.27;100.00;98106.59;5032460;28;20479;-61
2023/10/20 03:22:23;;;;;;;19.55;13.40;;;;;;;14.27;100.00;98115.41;5032259;28;20105;-61
2023/10/20 03:24:48;;;;;;;20.70;13.80;;;;;;;14.27;100.00;98115.41;5034381;28;20486;-61
2023/10/20 03:27:14;;;;;;;18.80;13.10;;;;;;;14.27;100.00;98111.91;5035693;28;20053;-61
2023/10/20 03:29:39;;;;;;;17.05;13.20;;;;;;;14.27;100.00;98111.91;5035584;28;20086;-61
2023/10/20 03:32:05;;;;;;;18.52;12.98;;;;;;;14.28;100.00;98103.00;5035938;28;20059;-61
2023/10/20 03:34:33;;;;;;;19.52;12.95;;;;;;;14.27;100.00;98098.63;5035600;28;20388;-61
2023/10/20 03:36:59;;;;;;;19.27;13.30;;;;;;;14.28;100.00;98089.72;5035282;28;20096;-61
2023/10/20 03:39:24;;;;;;;18.92;13.05;;;;;;;14.28;100.00;98082.59;5035510;28;20079;-61
2023/10/20 03:41:50;;;;;;;18.27;12.73;;;;;;;14.27;100.00;98072.06;5035357;28;20407;-61
2023/10/20 03:44:16;;;;;;;20.88;13.20;;;;;;;14.27;100.00;98072.06;5035380;28;20033;-61
2023/10/20 03:46:56;;;;;;;17.88;13.48;;;;;;;14.25;100.00;98080.09;5035288;28;20025;-61
2023/10/20 03:49:22;;;;;;;19.25;12.93;;;;;;;14.25;100.00;98093.38;5035412;28;20056;-61
2023/10/20 03:51:51;;;;;;;16.33;12.50;;;;;;;14.25;100.00;98090.72;5035518;28;20073;-62
2023/10/20 03:54:17;;;;;;;20.20;13.10;;;;;;;14.25;100.00;98082.75;5035479;28;20115;-62
2023/10/20 03:56:43;;;;;;;22.67;13.32;;;;;;;14.23;100.00;98065.19;5035080;28;20467;-62
2023/10/20 03:59:09;;;;;;;17.40;13.00;;;;;;;14.26;100.00;98047.31;5035158;28;20030;-61
2023/10/20 04:01:35;;;;;;;16.42;12.70;;;;;;;14.23;100.00;98044.78;5035371;28;20026;-62
2023/10/20 04:04:00;;;;;;;19.50;13.57;;;;;;;14.21;100.00;98046.66;5033982;28;20039;-62
2023/10/20 04:06:26;;;;;;;19.25;13.75;;;;;;;14.22;100.00;98056.34;5035219;28;20395;-62
2023/10/20 04:08:51;;;;;;;18.15;13.52;;;;;;;14.23;100.00;98062.53;5035011;28;20075;-62
2023/10/20 04:11:17;;;;;;;18.60;13.45;;;;;;;14.23;100.00;98058.06;5034953;28;20547;-62
2023/10/20 04:13:43;;;;;;;18.30;13.30;;;;;;;14.23;100.00;98041.28;5033708;28;20026;-62
2023/10/20 04:16:13;;;;;;;20.40;13.77;;;;;;;14.23;100.00;98028.00;5034900;28;20100;-62
2023/10/20 04:18:42;;;;;;;20.38;13.68;;;;;;;14.23;100.00;98023.53;5034707;28;20103;-62
2023/10/20 04:21:07;;;;;;;17.98;13.77;;;;;;;14.23;100.00;98030.66;5034805;28;20044;-62
2023/10/20 04:23:33;;;;;;;18.85;12.85;;;;;;;14.25;100.00;98012.84;5034978;28;20021;-62
2023/10/20 04:25:58;;;;;;;20.20;13.95;;;;;;;14.24;100.00;98008.47;5034774;28;20028;-62
2023/10/20 04:28:43;;;;;;;23.13;13.90;;;;;;;14.22;100.00;97999.72;5034769;28;20506;-62
2023/10/20 04:53:09;;;;;;;24.63;15.90;;;;;;;14.16;100.00;97937.13;5034235;28;20099;-62
2023/10/20 04:58:21;;;;;;;22.02;15.95;;;;;;;14.15;100.00;97930.09;5033967;28;20038;-62
2023/10/20 05:00:46;;;;;;;24.73;16.60;;;;;;;14.16;100.00;97928.31;5034126;28;20063;-62
2023/10/20 05:05:44;;;;;;;20.95;16.42;;;;;;;14.17;100.00;97919.41;5034068;28;20052;-62
2023/10/20 05:10:38;;;;;;;22.70;16.95;;;;;;;14.16;100.00;97904.41;5033838;28;20032;-62
2023/10/20 05:13:04;;;;;;;23.08;16.52;;;;;;;14.16;100.00;97904.41;5033878;28;20373;-62
2023/10/20 05:15:33;;;;;;;21.00;16.00;;;;;;;14.16;100.00;97901.75;5033722;28;20029;-62
2023/10/20 05:17:58;;;;;;;22.40;17.02;;;;;;;14.15;100.00;97900.03;5033500;28;20490;-62
2023/10/20 05:20:24;;;;;;;23.52;17.02;;;;;;;14.17;100.00;97900.81;5032473;28;20122;-62
2023/10/20 05:22:50;;;;;;;22.80;16.65;;;;;;;14.17;100.00;97883.06;5033856;28;20022;-62
2023/10/20 05:25:16;;;;;;;25.73;18.00;;;;;;;14.15;100.00;97877.00;5033610;28;20021;-62
2023/10/20 05:27:42;;;;;;;25.42;17.63;;;;;;;14.17;100.00;97879.56;5033510;28;20025;-62
2023/10/20 05:30:09;;;;;;;20.48;16.20;;;;;;;14.18;100.00;97876.00;5033661;28;20030;-62
2023/10/20 05:32:37;;;;;;;26.08;18.50;;;;;;;14.18;100.00;97878.66;5033577;28;20037;-62
2023/10/20 05:35:03;;;;;;;23.23;17.80;;;;;;;14.17;100.00;97882.22;5033383;28;20037;-62
2023/10/20 05:37:30;;;;;;;24.73;18.48;;;;;;;14.19;100.00;97891.00;5031749;28;20022;-62
2023/10/20 05:39:55;;;;;;;23.65;18.08;;;;;;;14.18;100.00;97890.13;5033385;28;20386;-62
2023/10/20 05:42:20;;;;;;;25.58;18.73;;;;;;;14.18;100.00;97892.78;5033207;28;20439;-62
2023/10/20 05:45:03;;;;;;;24.30;17.63;;;;;;;14.19;100.00;97902.47;5033224;28;20067;-62
2023/10/20 05:47:30;;;;;;;23.55;18.38;;;;;;;14.23;100.00;97892.53;5033097;28;20083;-62
2023/10/20 05:50:00;;;;;;;24.75;18.30;;;;;;;14.23;100.00;97881.94;5033426;28;20041;-62
2023/10/20 05:52:27;;;;;;;21.45;17.77;;;;;;;14.23;100.00;97881.94;5033437;28;20043;-62
2023/10/20 05:54:54;;;;;;;23.33;17.80;;;;;;;14.20;100.00;97877.63;5033108;28;20033;-62
2023/10/20 05:57:20;;;;;;;23.85;18.33;;;;;;;14.21;100.00;97881.13;5032850;28;20021;-62
2023/10/20 05:59:46;;;;;;;23.70;18.10;;;;;;;14.20;100.00;97882.06;5032855;28;20083;-62
2023/10/20 06:02:12;;;;;;;21.65;17.63;;;;;;;14.20;100.00;97866.13;5033137;28;20071;-62
2023/10/20 06:04:37;;;;;;;21.38;17.00;;;;;;;14.19;100.00;97867.94;5033147;28;20021;-62
2023/10/20 06:07:04;;;;;;;21.05;17.25;;;;;;;14.18;100.00;97866.22;5032918;28;20057;-62
2023/10/20 06:09:29;;;;;;;25.90;17.80;;;;;;;14.18;100.00;97858.25;5032886;28;20079;-62
2023/10/20 06:11:55;;;;;;;22.38;17.48;;;;;;;14.17;100.00;97850.34;5032860;28;20025;-62
2023/10/20 06:14:23;;;;;;;22.83;17.63;;;;;;;14.16;100.00;97846.84;5032804;28;20084;-62
2023/10/20 06:16:49;;;;;;;22.42;17.42;;;;;;;14.16;100.00;97846.84;5032347;28;20075;-62
2023/10/20 06:19:15;;;;;;;23.13;16.95;;;;;;;14.16;100.00;97864.56;5032930;28;20057;-62
2023/10/20 06:21:42;;;;;;;22.85;17.65;;;;;;;14.14;100.00;97864.66;5032784;28;20029;-62
2023/10/20 06:24:14;;;;;;;21.45;16.88;;;;;;;14.17;100.00;97871.59;5032785;28;20533;-62
2023/10/20 06:26:40;;;;;;;24.60;17.35;;;;;;;14.17;100.00;97871.59;5033120;28;20052;-62
2023/10/20 06:29:26;;;;;;;22.40;17.38;;;;;;;14.16;100.00;97846.00;5032957;28;20368;-62
2023/10/20 06:32:21;;;;;;;21.77;17.38;;;;;;;14.17;100.00;97847.69;5032540;28;20124;-62
2023/10/20 06:34:42;;;;;;;21.67;17.45;;;;;;;14.18;100.00;97850.28;5032324;28;20384;-62
2023/10/20 06:37:08;;;;;;;22.25;18.50;;;;;;;14.18;100.00;97850.28;5032494;28;20033;-62
2023/10/20 06:39:37;;;;;;;26.05;17.83;;;;;;;14.17;100.00;97843.25;5032567;28;20025;-62
2023/10/20 06:42:03;;;;;;;22.33;18.45;;;;;;;14.11;100.00;97854.19;5032365;28;20033;-62
2023/10/20 06:44:30;;;;;;;23.73;19.17;;;;;;;14.15;100.00;97861.06;5032357;28;20036;-62
2023/10/20 06:46:56;;;;;;;21.20;18.20;;;;;;;14.16;100.00;97856.59;5031298;28;20040;-62
2023/10/20 06:49:21;;;;;;;22.80;18.90;;;;;;;14.16;100.00;97843.34;5032535;28;20053;-62
2023/10/20 06:51:47;;;;;;;26.52;18.67;;;;;;;14.16;100.00;97844.19;5032486;28;20467;-62
2023/10/20 06:54:13;;;;;;;24.15;18.15;;;;;;;14.15;100.00;97833.66;5032211;28;20037;-62
2023/10/20 06:56:39;;;;;;;21.80;18.25;;;;;;;14.15;100.00;97837.16;5032130;28;20112;-62
2023/10/20 06:59:04;;;;;;;22.05;18.23;;;;;;;14.17;100.00;97839.72;5032902;28;20116;-62
2023/10/20 07:01:33;;;;;;;21.75;18.15;;;;;;;14.17;100.00;97837.06;5036167;28;20037;-62
2023/10/20 07:03:59;;;;;;;20.70;17.25;;;;;;;14.16;100.00;97835.38;5035861;28;20021;-62
2023/10/20 07:06:24;;;;;;;22.23;18.33;;;;;;;14.15;100.00;97826.53;5036140;28;20116;-62
2023/10/20 07:08:50;;;;;;;20.75;17.95;;;;;;;14.17;100.00;97834.41;5034530;28;20136;-63
2023/10/20 07:11:16;;;;;;;21.40;17.05;;;;;;;14.15;100.00;97828.34;5034629;28;20021;-63
2023/10/20 07:13:44;;;;;;;21.17;17.00;;;;;;;14.17;100.00;97835.28;5035766;28;20467;-63
2023/10/20 07:16:09;;;;;;;18.60;16.63;;;;;;;14.16;100.00;97835.38;5035738;28;20040;-63
2023/10/20 07:18:36;;;;;;;22.83;19.30;;;;;;;14.17;100.00;97835.28;5035570;28;20053;-63
2023/10/20 07:21:03;;;;;;;27.23;16.33;;;;;;;14.17;100.00;97832.63;5035980;28;20100;-63
2023/10/20 07:23:28;;;;;;;18.23;16.17;;;;;;;14.16;100.00;97824.75;5035947;28;20033;-63
2023/10/20 07:25:53;;;;;;;17.60;15.70;;;;;;;14.17;100.00;97832.63;5035837;28;20547;-63
2023/10/20 07:28:19;;;;;;;19.55;14.90;;;;;;;14.17;100.00;97824.66;5035865;28;20034;-63
2023/10/20 07:30:45;;;;;;;16.42;14.35;;;;;;;14.15;100.00;97826.53;5035502;28;20407;-62
2023/10/20 07:33:11;;;;;;;17.83;14.45;;;;;;;14.14;100.00;97822.19;5035581;28;20056;-62
2023/10/20 07:35:39;;;;;;;17.70;13.70;;;;;;;14.12;100.00;97823.19;5035753;28;20419;-62
2023/10/20 07:38:04;;;;;;;16.13;12.68;;;;;;;14.11;100.00;97822.34;5035088;28;20083;-62
2023/10/20 07:40:34;;;;;;;17.02;13.15;;;;;;;14.10;100.00;97825.06;5035335;28;20018;-62
2023/10/20 07:43:06;;;;;;;15.13;12.85;;;;;;;14.07;100.00;97819.91;5035804;28;20387;-62
2023/10/20 07:45:36;;;;;;;16.20;12.98;;;;;;;14.07;100.00;97818.13;5035137;28;20041;-62
2023/10/20 07:48:05;;;;;;;14.15;12.30;;;;;;;14.07;100.00;97814.59;5035174;28;20100;-62
2023/10/20 07:50:30;;;;;;;17.33;12.32;;;;;;;14.05;100.00;97812.03;5035168;28;20053;-62
2023/10/20 07:52:55;;;;;;;15.63;11.85;;;;;;;14.04;100.00;97811.16;5035060;28;20050;-62
2023/10/20 07:55:21;;;;;;;17.90;14.13;;;;;;;14.04;100.00;97811.16;5033839;28;20021;-62
2023/10/20 07:57:46;;;;;;;15.43;11.55;;;;;;;14.06;100.00;97808.44;5034959;28;20053;-62
2023/10/20 08:00:13;;;;;;;13.15;11.05;;;;;;;14.04;100.00;97802.34;5035294;28;20431;-62
2023/10/20 08:02:39;;;;;;;14.93;11.38;;;;;;;14.02;100.00;97794.47;5034895;28;20033;-61
2023/10/20 08:05:05;;;;;;;13.32;10.35;;;;;;;13.99;100.00;97780.47;5034141;28;20036;-62
2023/10/20 08:07:31;;;;;;;12.15;10.60;;;;;;;13.99;100.00;97788.44;5033831;28;20033;-62
2023/10/20 08:09:56;;;;;;;13.10;9.48;;;;;;;13.98;100.00;97778.78;5034484;28;20428;-62
2023/10/20 08:12:22;;;;;;;11.85;10.02;;;;;;;13.96;100.00;97788.59;5035036;28;20029;-62
2023/10/20 08:14:47;;;;;;;13.18;9.57;;;;;;;13.96;100.00;97783.28;5034941;28;20479;-62
2023/10/20 08:17:13;;;;;;;10.70;8.93;;;;;;;13.91;100.00;97791.50;5033219;28;20418;-62
2023/10/20 08:19:44;;;;;;;11.73;9.13;;;;;;;13.88;100.00;97788.16;5034655;28;20029;-62
2023/10/20 08:22:09;;;;;;;9.77;8.00;;;;;;;13.84;100.00;97787.47;5034619;28;20502;-61
2023/10/20 08:24:34;;;;;;;12.20;9.90;;;;;;;13.84;100.00;97789.25;5034535;28;20025;-62
2023/10/20 08:27:00;;;;;;;10.40;8.52;;;;;;;13.84;100.00;97789.25;5033065;28;20064;-62
2023/10/20 08:29:25;;;;;;;9.63;8.13;;;;;;;13.82;100.00;97786.66;5034027;28;20033;-62
2023/10/20 08:31:51;;;;;;;11.02;8.65;;;;;;;13.82;100.00;97785.81;5034345;28;20497;-62
2023/10/20 08:34:16;;;;;;;10.57;7.88;;;;;;;13.79;100.00;97786.84;5034718;28;20071;-62
2023/10/20 08:36:41;;;;;;;11.02;8.02;;;;;;;13.77;100.00;97794.00;5034257;28;20022;-62
2023/10/20 08:39:20;;;;;;;9.98;7.60;;;;;;;13.74;100.00;97784.41;5034382;28;20408;-62
2023/10/20 08:41:46;;;;;;;9.63;7.57;;;;;;;13.72;100.00;97786.28;5034316;28;20471;-62
2023/10/20 08:44:12;;;;;;;9.25;7.80;;;;;;;13.68;100.00;97787.38;5034131;28;20025;-61
2023/10/20 08:46:41;;;;;;;11.32;7.32;;;;;;;13.66;100.00;97781.31;5034292;28;20395;-62
2023/10/20 08:49:07;;;;;;;9.80;7.03;;;;;;;13.64;100.00;97784.97;5034226;28;20030;-62
2023/10/20 08:51:37;;;;;;;8.15;6.75;;;;;;;13.59;100.00;97773.72;5034365;28;20104;-62
2023/10/20 08:54:06;;;;;;;9.20;6.60;;;;;;;13.55;100.00;97786.28;5033985;28;20041;-62
2023/10/20 08:56:32;;;;;;;7.07;5.97;;;;;;;13.53;100.00;97788.13;5034117;28;20060;-62
2023/10/20 08:58:58;;;;;;;10.50;5.68;;;;;;;13.50;100.00;97794.47;5033817;28;20057;-62
2023/10/20 09:01:23;;;;;;;8.45;5.32;;;;;;;13.50;100.00;97783.88;5033785;28;20454;-62
2023/10/20 09:03:49;;;;;;;5.95;4.65;;;;;;;13.44;100.00;97781.50;5033989;28;20045;-61
2023/10/20 09:06:15;;;;;;;6.20;4.50;;;;;;;13.43;100.00;97790.41;5032644;28;20091;-62
2023/10/20 09:08:49;;;;;;;5.63;4.20;;;;;;;13.40;100.00;97782.59;5033611;28;20087;-61
2023/10/20 09:11:15;;;;;;;5.72;4.13;;;;;;;13.36;100.00;97791.66;5033664;28;20044;-61
2023/10/20 09:13:43;;;;;;;4.40;3.80;;;;;;;13.38;100.00;97783.63;5033615;28;20021;-61
2023/10/20 09:16:10;;;;;;;4.47;3.80;;;;;;;13.39;100.00;97802.09;5032280;28;20026;-61
2023/10/20 09:18:48;;;;;;;4.88;3.70;;;;;;;13.38;100.00;97788.91;5033309;28;20050;-61
2023/10/20 09:21:25;;;;;;;4.60;3.63;;;;;;;13.32;100.00;97782.13;5032998;28;20022;-62
2023/10/20 09:24:01;;;;;;;4.72;3.22;;;;;;;13.30;100.00;97788.44;5033367;28;20508;-61
2023/10/20 09:26:29;;;;;;;3.92;3.10;;;;;;;13.28;100.00;97765.53;5033590;28;20060;-61
2023/10/20 09:28:56;;;;;;;4.75;3.28;;;;;;;13.26;100.00;97771.81;5033551;28;20038;-62
2023/10/20 09:31:24;;;;;;;5.70;3.45;;;;;;;13.24;100.00;97771.91;5033014;28;20060;-61
2023/10/20 09:33:50;;;;;;;4.28;3.25;;;;;;;13.23;100.00;97777.25;5033551;28;20116;-61
2023/10/20 09:36:16;;;;;;;3.80;2.90;;;;;;;13.24;100.00;97781.66;5033088;28;20543;-61
2023/10/20 09:38:55;;;;;;;3.78;3.00;;;;;;;13.25;100.00;97786.88;5033074;28;20025;-61
2023/10/20 09:41:22;;;;;;;4.20;3.42;;;;;;;13.24;100.00;97779.84;5033442;28;20026;-61
2023/10/20 09:43:52;;;;;;;4.43;3.08;;;;;;;13.26;100.00;97777.13;5032990;28;20026;-61
2023/10/20 09:46:27;;;;;;;4.22;2.83;;;;;;;13.24;100.00;97781.66;5033051;28;20038;-62
2023/10/20 09:48:55;;;;;;;3.85;3.15;;;;;;;13.23;100.00;97772.84;5033284;28;20030;-62
2023/10/20 09:51:21;;;;;;;3.35;2.65;;;;;;;13.19;100.00;97770.34;5032868;28;20029;-61
2023/10/20 09:53:48;;;;;;;3.42;2.70;;;;;;;13.20;100.00;97774.75;5033236;28;20033;-62
2023/10/20 09:56:15;;;;;;;4.28;2.72;;;;;;;13.17;100.00;97770.44;5032987;28;20095;-62
2023/10/20 09:58:41;;;;;;;5.28;3.78;;;;;;;13.17;100.00;97762.50;5032710;28;20092;-61
2023/10/20 10:01:07;;;;;;;4.65;3.00;;;;;;;13.17;100.00;97775.75;5032741;28;20450;-62
2023/10/20 10:03:39;;;;;;;4.05;2.90;;;;;;;13.16;100.00;97784.66;5032574;28;20068;-63
2023/10/20 10:06:19;;;;;;;3.92;3.00;;;;;;;13.15;100.00;97766.16;5033142;28;20095;-61
2023/10/20 10:08:45;;;;;;;3.38;2.40;;;;;;;13.18;100.00;97771.31;5032726;28;20428;-62
2023/10/20 10:11:27;;;;;;;3.92;2.80;;;;;;;13.21;100.00;97772.00;5033093;28;20021;-61
2023/10/20 10:13:59;;;;;;;;;;;;;;;13.28;100.00;97777.91;5032792;28;20021;-62
2023/10/20 10:16:25;;;;;;;4.00;2.60;;;;;;;13.27;100.00;97763.81;5032549;28;20375;-62
2023/10/20 10:18:54;;;;;;;6.20;2.85;;;;;;;13.29;100.00;97761.06;5032205;28;20080;-62
2023/10/20 10:21:29;;;;;;;3.72;2.95;;;;;;;13.28;100.00;97760.22;5033046;28;20049;-62
2023/10/20 10:24:11;;;;;;;2.75;2.40;;;;;;;13.30;100.00;97759.28;5032853;28;20487;-62
2023/10/20 10:27:07;;;;;;;6.53;2.90;;;;;;;13.31;100.00;97748.56;5032969;28;20113;-62
2023/10/20 10:29:57;;;;;;;2.75;2.50;;;;;;;13.33;100.00;97767.09;5028033;28;20124;-62
2023/10/20 10:32:27;;;;;;;6.05;4.43;;;;;;;13.31;100.00;97753.88;5032522;28;20079;-62
2023/10/20 10:34:54;;;;;;;3.50;2.80;;;;;;;13.28;100.00;97746.97;5036756;28;20033;-62
2023/10/20 10:37:45;;;;;;;3.25;2.70;;;;;;;13.31;100.00;97745.94;5036478;28;20025;-62
2023/10/20 10:40:22;;;;;;;6.20;3.90;;;;;;;13.34;100.00;97739.63;5035401;28;20037;-62
2023/10/20 10:42:52;;;;;;;4.40;2.85;;;;;;;13.33;100.00;97729.97;5036902;28;20041;-62
2023/10/20 10:45:22;;;;;;;4.68;2.90;;;;;;;13.33;100.00;97733.47;5036619;28;20025;-62
2023/10/20 10:48:03;;;;;;;12.07;5.13;;;;;;;13.33;100.00;97722.00;5036759;28;20041;-63
2023/10/20 10:50:29;;;;;;;3.88;2.67;;;;;;;13.33;100.00;97725.50;5036606;28;20025;-63
2023/10/20 10:52:54;;;;;;;3.92;2.58;;;;;;;13.33;100.00;97722.00;5036271;28;20103;-61
2023/10/20 10:55:20;;;;;;;3.70;2.47;;;;;;;13.32;100.00;97720.25;5036181;28;20014;-62
2023/10/20 10:57:46;;;;;;;3.15;2.50;;;;;;;13.31;100.00;97719.41;5036020;28;20064;-63
2023/10/20 11:00:15;;;;;;;3.55;2.55;;;;;;;13.35;100.00;97706.84;5036160;28;20029;-63
2023/10/20 11:02:44;;;;;;;3.85;2.75;;;;;;;13.35;100.00;97702.41;5036459;28;20033;-64
2023/10/20 11:05:10;;;;;;;3.70;2.72;;;;;;;13.41;100.00;97707.41;5036380;28;20080;-63
2023/10/20 11:07:36;;;;;;;3.95;2.80;;;;;;;13.42;100.00;97692.34;5036258;28;20021;-62
2023/10/20 11:10:03;;;;;;;3.40;2.80;;;;;;;13.46;100.00;97685.97;5036138;28;20455;-62
2023/10/20 11:12:30;;;;;;;5.43;4.18;;;;;;;13.51;100.00;97682.13;5035004;28;20037;-63
2023/10/20 11:15:05;;;;;;;5.05;3.85;;;;;;;13.52;100.00;97664.41;5036025;28;20398;-62
2023/10/20 11:17:31;;;;;;;3.53;3.20;;;;;;;13.53;100.00;97674.97;5034559;28;20087;-62
2023/10/20 11:19:56;;;;;;;3.90;3.47;;;;;;;13.52;100.00;97680.31;5035595;28;20053;-62
2023/10/20 11:22:22;;;;;;;3.88;3.45;;;;;;;13.53;100.00;97671.41;5035776;28;20030;-62
2023/10/20 11:24:53;;;;;;;4.40;3.60;;;;;;;13.55;100.00;97666.06;5035964;28;20048;-62
2023/10/20 11:27:19;;;;;;;4.30;3.53;;;;;;;13.56;100.00;97663.31;5036093;28;20030;-62
2023/10/20 11:29:45;;;;;;;4.82;3.70;;;;;;;13.56;100.00;97659.81;5035627;28;20552;-64
2023/10/20 11:32:13;;;;;;;3.95;3.50;;;;;;;13.58;100.00;97663.25;5035462;28;20028;-62
2023/10/20 11:34:39;;;;;;;4.40;4.00;;;;;;;13.59;100.00;97665.81;5035472;28;20037;-62
2023/10/20 11:37:05;;;;;;;4.38;3.92;;;;;;;13.58;100.00;97657.94;5035123;28;20083;-62
2023/10/20 11:39:36;;;;;;;4.80;4.20;;;;;;;13.60;100.00;97661.34;5037674;28;20031;-62
2023/10/20 11:42:02;;;;;;;4.57;4.10;;;;;;;13.61;100.00;97655.09;5035339;28;20060;-62
2023/10/20 11:44:28;;;;;;;5.18;4.68;;;;;;;13.63;100.00;97655.91;5035405;28;20021;-62